createdAt,value
2023-12-04T06:47:38.450Z,5.87
2023-12-04T06:52:41.996Z,5.72
2023-12-04T06:57:44.742Z,5.56
2023-12-04T07:02:50.279Z,5.63
2023-12-04T07:07:53.268Z,5.64
2023-12-04T07:12:56.358Z,5.70
2023-12-04T07:17:59.160Z,5.84
2023-12-04T07:23:03.740Z,5.68
2023-12-04T07:28:13.944Z,6.07
2023-12-04T07:33:21.042Z,6.11
2023-12-04T07:38:25.754Z,6.27
2023-12-04T07:43:31.140Z,6.59
2023-12-04T07:48:33.935Z,6.22
2023-12-04T07:53:37.106Z,6.45
2023-12-04T07:58:39.928Z,6.13
2023-12-04T08:03:45.916Z,6.33
2023-12-04T08:08:52.031Z,6.27
2023-12-04T08:14:05.117Z,6.74
2023-12-04T08:19:09.423Z,6.60
2023-12-04T08:24:17.310Z,6.61
2023-12-04T08:29:25.218Z,6.21
2023-12-04T08:34:28.594Z,6.33
2023-12-04T08:39:32.165Z,5.94
2023-12-04T08:44:36.796Z,6.52
2023-12-04T08:49:46.398Z,6.52
2023-12-04T08:54:52.547Z,6.41
2023-12-04T08:59:55.380Z,6.79
2023-12-04T09:04:58.612Z,6.59
2023-12-04T09:10:08.236Z,6.28
2023-12-04T09:15:14.353Z,6.53
2023-12-04T09:20:17.278Z,6.23
2023-12-04T09:25:21.075Z,6.37
2023-12-04T09:30:24.237Z,6.18
2023-12-04T09:35:27.561Z,6.73
2023-12-04T09:40:30.422Z,6.38
2023-12-04T09:45:34.816Z,6.32
2023-12-04T09:50:39.303Z,6.00
2023-12-04T09:55:42.733Z,6.09
2023-12-04T10:00:46.000Z,5.83
2023-12-04T10:05:50.656Z,5.65
2023-12-04T10:10:53.465Z,5.70
2023-12-04T10:15:56.629Z,6.01
2023-12-04T10:21:00.604Z,6.02
2023-12-04T10:26:04.559Z,5.84
2023-12-04T10:31:08.575Z,5.77
2023-12-04T10:36:14.674Z,5.31
2023-12-04T10:41:17.458Z,5.63
2023-12-04T10:46:22.344Z,5.28
2023-12-04T10:51:25.439Z,5.30
2023-12-04T10:56:38.072Z,5.12
2023-12-04T11:01:46.896Z,5.17
2023-12-04T11:06:54.000Z,4.92
2023-12-04T11:12:04.637Z,5.22
2023-12-04T11:17:16.494Z,5.12
2023-12-04T11:22:21.730Z,5.03
2023-12-04T11:27:26.009Z,4.80
2023-12-04T11:32:31.326Z,4.71
2023-12-04T11:37:35.031Z,4.66
2023-12-04T11:42:40.750Z,5.00
2023-12-04T11:47:59.674Z,5.03
2023-12-04T11:53:06.296Z,5.11
2023-12-04T11:58:13.625Z,5.14
2023-12-04T12:03:23.261Z,5.05
2023-12-04T12:08:27.116Z,5.08
2023-12-04T12:13:30.234Z,5.22
2023-12-04T12:18:37.251Z,5.01
2023-12-04T12:23:40.830Z,5.39
2023-12-04T12:28:43.940Z,5.57
2023-12-04T12:33:46.849Z,4.99
2023-12-04T12:38:51.503Z,5.30
2023-12-04T12:43:57.633Z,5.48
2023-12-04T12:49:01.158Z,5.44
2023-12-04T12:54:04.463Z,5.47
2023-12-04T12:59:08.252Z,5.23
2023-12-04T13:04:16.775Z,4.92
2023-12-04T13:09:21.283Z,4.94
2023-12-04T13:14:24.229Z,5.08
2023-12-04T13:19:36.290Z,5.35
2023-12-04T13:24:39.744Z,5.23
2023-12-04T13:29:43.024Z,4.88
2023-12-04T13:34:46.199Z,5.12
2023-12-04T13:39:49.898Z,5.27
2023-12-04T13:44:53.211Z,4.92
2023-12-04T13:49:59.785Z,5.02
2023-12-04T13:55:02.618Z,5.01
2023-12-04T14:00:07.402Z,5.11
2023-12-04T14:05:10.313Z,5.05
2023-12-04T14:10:15.842Z,4.88
2023-12-04T14:15:18.709Z,4.84
2023-12-04T14:20:23.816Z,5.10
2023-12-04T14:25:26.643Z,5.13
2023-12-04T14:30:30.216Z,5.00
2023-12-04T14:35:33.670Z,4.81
2023-12-04T14:40:37.029Z,4.97
2023-12-04T14:45:39.793Z,4.90
2023-12-04T14:50:42.927Z,4.47
2023-12-04T14:56:05.939Z,4.17
2023-12-04T15:01:27.674Z,4.72
2023-12-04T15:07:05.399Z,4.56
2023-12-04T15:12:37.924Z,4.50
2023-12-04T15:17:52.417Z,4.47
2023-12-04T15:22:56.810Z,4.31
2023-12-04T15:27:59.725Z,4.58
2023-12-04T15:33:03.618Z,3.85
2023-12-04T15:38:06.498Z,3.89
2023-12-04T15:43:09.612Z,3.99
2023-12-04T15:48:13.040Z,4.01
2023-12-04T15:53:16.411Z,3.75
2023-12-04T15:58:19.191Z,3.10
2023-12-04T16:03:22.581Z,3.32
2023-12-04T16:08:25.437Z,3.24
2023-12-04T16:13:29.882Z,3.52
2023-12-04T16:18:34.862Z,3.52
2023-12-04T16:23:38.241Z,3.18
2023-12-04T16:28:41.138Z,3.04
2023-12-04T16:33:44.809Z,3.45
2023-12-04T16:38:48.054Z,3.36
2023-12-04T16:43:51.410Z,2.99
2023-12-04T16:48:54.456Z,2.97
2023-12-04T16:53:58.019Z,3.12
2023-12-04T16:59:00.953Z,2.94
2023-12-04T17:04:04.587Z,2.67
2023-12-04T17:09:08.457Z,2.95
2023-12-04T17:14:12.312Z,3.00
2023-12-04T17:19:15.308Z,2.92
2023-12-04T17:24:18.752Z,3.07
2023-12-04T17:29:21.671Z,2.90
2023-12-04T17:34:25.158Z,2.59
2023-12-04T17:39:28.140Z,1.78
2023-12-04T17:44:32.193Z,1.79
2023-12-04T17:49:36.380Z,1.69
2023-12-04T17:54:40.288Z,1.55
2023-12-04T17:59:43.294Z,1.78
2023-12-04T18:04:46.510Z,1.52
2023-12-04T18:09:49.392Z,1.69
2023-12-04T18:14:53.141Z,1.99
2023-12-04T18:19:56.301Z,1.69
2023-12-04T18:25:00.276Z,1.64
2023-12-04T18:30:07.094Z,1.68
2023-12-04T18:35:11.371Z,2.08
2023-12-04T18:40:14.658Z,2.17
2023-12-04T18:45:18.560Z,2.25
2023-12-04T18:50:22.051Z,2.43
2023-12-04T18:55:25.417Z,2.23
2023-12-04T19:00:28.438Z,2.75
2023-12-04T19:05:32.352Z,2.35
2023-12-04T19:10:35.478Z,2.47
2023-12-04T19:15:38.778Z,2.39
2023-12-04T19:20:41.871Z,2.73
2023-12-04T19:25:50.058Z,3.09
2023-12-04T19:30:54.574Z,3.15
2023-12-04T19:35:57.905Z,2.67
2023-12-04T19:41:00.971Z,2.69
2023-12-04T19:46:05.681Z,2.63
2023-12-04T19:51:09.122Z,2.09
2023-12-04T19:56:12.774Z,2.23
2023-12-04T20:01:28.222Z,2.20
2023-12-04T20:06:32.916Z,2.25
2023-12-04T20:11:36.943Z,2.12
2023-12-04T20:16:40.070Z,2.47
2023-12-04T20:21:43.931Z,2.43
2023-12-04T20:26:48.933Z,2.03
2023-12-04T20:31:52.113Z,2.54
2023-12-04T20:36:57.192Z,1.77
2023-12-04T20:42:00.073Z,2.20
2023-12-04T20:47:04.029Z,2.11
2023-12-04T20:52:07.835Z,1.61
2023-12-04T20:57:11.055Z,2.26
2023-12-04T21:02:14.526Z,2.10
2023-12-04T21:07:17.510Z,1.74
2023-12-04T21:12:20.570Z,1.65
2023-12-04T21:17:23.276Z,1.45
2023-12-04T21:22:26.684Z,1.18
2023-12-04T21:27:33.076Z,1.66
2023-12-04T21:32:36.367Z,1.69
2023-12-04T21:37:39.160Z,2.06
2023-12-04T21:42:42.960Z,1.81
2023-12-04T21:47:45.766Z,1.51
2023-12-04T21:52:48.955Z,1.54
2023-12-04T21:57:51.708Z,1.42
2023-12-04T22:02:54.912Z,1.65
2023-12-04T22:07:58.493Z,1.73
2023-12-04T22:13:01.777Z,1.55
2023-12-04T22:18:04.843Z,0.96
2023-12-04T22:23:08.023Z,0.65
2023-12-04T22:28:10.807Z,0.73
2023-12-04T22:33:14.295Z,0.87
2023-12-04T22:38:17.075Z,1.06
2023-12-04T22:43:21.207Z,0.70
2023-12-04T22:48:24.263Z,0.77
2023-12-04T22:53:27.498Z,0.77
2023-12-04T22:58:30.275Z,0.66
2023-12-04T23:03:33.728Z,0.64
2023-12-04T23:08:37.421Z,1.03
2023-12-04T23:13:43.303Z,0.91
2023-12-04T23:18:47.389Z,0.35
2023-12-04T23:23:50.629Z,0.23
2023-12-04T23:28:55.512Z,0.26
2023-12-04T23:33:59.348Z,0.09
2023-12-04T23:39:03.766Z,0.29
2023-12-04T23:44:06.885Z,0.14
2023-12-04T23:49:10.169Z,0.34
2023-12-04T23:54:13.457Z,-0.02
2023-12-04T23:59:16.261Z,0.08
